PWSweather.com
Personal Weather Stations
Station Observations
KCOGRAND2
Redlands, Southcamp Road & Dakota Circle, Grand Junction, CO 81507

Redlands, Southcamp Road & Dakota CircleGrand Junction, CO 81507

Lat: 39.055, Lon: -108.637

Elevation: 4870

Station Type: RadioShack WX200

Latest ConditionsUpdated 7:28:50 AM MDT Saturday, Mar 25, 2017
Currently Today's Max Today's Min Today's Average
Temperature 39.4°F4.1°C 47.8°F8.8°C 37.4°F3.0°C 42.1°F5.6°C
Dew Point 19.8°F-6.8°C 23.2°F-4.9°C 3.4°F-15.9°C 16.2°F-8.8°C
Winds 6.0 mph N9.7 kmh N 10.0 mph N16.1 kmh N - 3.1 mph 5.0 kmh
Wind Gusts 11.2 mph18.0 kmh 13.9 mph22.4 kmh - -
Humidity 45% 51% 16% 37%
Pressure 25.07 in849.0 mb 25.13 in851.0 mb 25.07 in849.0 mb -
Hour Temp Dew Point Humidity Winds Wind Gusts Pressure Precip Precip Rate Daily Precip Total
07:28 AM 39.4°F4.1°C 19.8°F-6.8°C 45% 6.0 mph N9.7 kmh N 11.2 mph18.0 kmh 25.07 in849.0 mb 0.00 in0.0 mm 0.00 in0.0 mm 0.00 in0.0 mm
07:23 AM 39.6°F4.2°C 19.4°F-7.0°C 44% 5.0 mph NNW8.0 kmh NNW 9.6 mph15.4 kmh 25.07 in849.0 mb 0.00 in0.0 mm 0.00 in0.0 mm 0.00 in0.0 mm
07:18 AM 39.9°F4.4°C 19.2°F-7.1°C 43% 5.0 mph NNW8.0 kmh NNW 7.8 mph12.6 kmh 25.07 in849.0 mb 0.00 in0.0 mm 0.00 in0.0 mm 0.00 in0.0 mm
07:13 AM 40.5°F4.7°C 19.2°F-7.1°C 42% 6.0 mph NW9.7 kmh NW 11.0 mph17.7 kmh 25.07 in849.0 mb 0.00 in0.0 mm 0.00 in0.0 mm 0.00 in0.0 mm
07:08 AM 41.2°F5.1°C 19.8°F-6.8°C 42% 7.0 mph NW11.3 kmh NW 9.6 mph15.4 kmh 25.07 in849.0 mb 0.00 in0.0 mm 0.00 in0.0 mm 0.00 in0.0 mm
07:03 AM 41.0°F5.0°C 19.0°F-7.2°C 41% 7.0 mph NW11.3 kmh NW 11.0 mph17.7 kmh 25.07 in849.0 mb 0.00 in0.0 mm 0.00 in0.0 mm 0.00 in0.0 mm
06:58 AM 41.5°F5.3°C 19.6°F-6.9°C 41% 7.0 mph NW11.3 kmh NW 9.6 mph15.4 kmh 25.07 in849.0 mb 0.00 in0.0 mm 0.00 in0.0 mm 0.00 in0.0 mm
06:53 AM 41.5°F5.3°C 19.6°F-6.9°C 41% 7.0 mph NNW11.3 kmh NNW 10.1 mph16.3 kmh 25.07 in849.0 mb 0.00 in0.0 mm 0.00 in0.0 mm 0.00 in0.0 mm
06:48 AM 41.5°F5.3°C 19.6°F-6.9°C 41% 8.0 mph NNW12.9 kmh NNW 10.5 mph16.9 kmh 25.07 in849.0 mb 0.00 in0.0 mm 0.00 in0.0 mm 0.00 in0.0 mm
06:43 AM 41.7°F5.4°C 19.8°F-6.8°C 41% 8.0 mph NNW12.9 kmh NNW 12.1 mph19.5 kmh 25.07 in849.0 mb 0.00 in0.0 mm 0.00 in0.0 mm 0.00 in0.0 mm
06:38 AM 41.9°F5.5°C 19.9°F-6.7°C 41% 10.0 mph NNW16.1 kmh NNW 13.0 mph20.9 kmh 25.07 in849.0 mb 0.00 in0.0 mm 0.00 in0.0 mm 0.00 in0.0 mm
06:33 AM 42.3°F5.7°C 20.3°F-6.5°C 41% 10.0 mph N16.1 kmh N 13.4 mph21.6 kmh 25.07 in849.0 mb 0.00 in0.0 mm 0.00 in0.0 mm 0.00 in0.0 mm
06:28 AM 42.1°F5.6°C 20.1°F-6.6°C 41% 10.0 mph N16.1 kmh N 13.9 mph22.4 kmh 25.07 in849.0 mb 0.00 in0.0 mm 0.00 in0.0 mm 0.00 in0.0 mm
06:23 AM 42.3°F5.7°C 20.3°F-6.5°C 41% 10.0 mph N16.1 kmh N 13.4 mph21.6 kmh 25.07 in849.0 mb 0.00 in0.0 mm 0.00 in0.0 mm 0.00 in0.0 mm
06:18 AM 42.4°F5.8°C 20.5°F-6.4°C 41% 10.0 mph N16.1 kmh N 13.0 mph20.9 kmh 25.07 in849.0 mb 0.00 in0.0 mm 0.00 in0.0 mm 0.00 in0.0 mm
06:13 AM 42.4°F5.8°C 21.6°F-5.8°C 43% 8.0 mph N12.9 kmh N 13.0 mph20.9 kmh 25.10 in850.0 mb 0.00 in0.0 mm 0.00 in0.0 mm 0.00 in0.0 mm
06:08 AM 41.4°F5.2°C 23.2°F-4.9°C 48% 5.0 mph N8.0 kmh N 12.5 mph20.1 kmh 25.10 in850.0 mb 0.00 in0.0 mm 0.00 in0.0 mm 0.00 in0.0 mm
06:03 AM 37.9°F3.3°C 21.0°F-6.1°C 50% 3.0 mph NNE4.8 kmh NNE 5.8 mph9.3 kmh 25.10 in850.0 mb 0.00 in0.0 mm 0.00 in0.0 mm 0.00 in0.0 mm
05:58 AM 38.8°F3.8°C 21.4°F-5.9°C 49% 4.0 mph N6.4 kmh N 6.9 mph11.1 kmh 25.10 in850.0 mb 0.00 in0.0 mm 0.00 in0.0 mm 0.00 in0.0 mm
05:53 AM 38.8°F3.8°C 21.4°F-5.9°C 49% 5.0 mph NNW8.0 kmh NNW 6.7 mph10.8 kmh 25.10 in850.0 mb 0.00 in0.0 mm 0.00 in0.0 mm 0.00 in0.0 mm
05:48 AM 39.0°F3.9°C 21.6°F-5.8°C 49% 5.0 mph NNW8.0 kmh NNW 7.4 mph11.9 kmh 25.10 in850.0 mb 0.00 in0.0 mm 0.00 in0.0 mm 0.00 in0.0 mm
05:43 AM 39.4°F4.1°C 22.8°F-5.1°C 51% 2.0 mph N3.2 kmh N 7.4 mph11.9 kmh 25.10 in850.0 mb 0.00 in0.0 mm 0.00 in0.0 mm 0.00 in0.0 mm
05:38 AM 38.5°F3.6°C 21.6°F-5.8°C 50% 1.0 mph N1.6 kmh N 6.7 mph10.8 kmh 25.10 in850.0 mb 0.00 in0.0 mm 0.00 in0.0 mm 0.00 in0.0 mm
05:33 AM 37.4°F3.0°C 20.5°F-6.4°C 50% 1.0 mph N1.6 kmh N 4.5 mph7.2 kmh 25.10 in850.0 mb 0.00 in0.0 mm 0.00 in0.0 mm 0.00 in0.0 mm
05:28 AM 38.1°F3.4°C 20.7°F-6.3°C 49% 2.0 mph N3.2 kmh N 4.5 mph7.2 kmh 25.10 in850.0 mb 0.00 in0.0 mm 0.00 in0.0 mm 0.00 in0.0 mm
05:23 AM 39.2°F4.0°C 21.7°F-5.7°C 49% 4.0 mph N6.4 kmh N 5.8 mph9.3 kmh 25.10 in850.0 mb 0.00 in0.0 mm 0.00 in0.0 mm 0.00 in0.0 mm
05:18 AM 38.8°F3.8°C 21.4°F-5.9°C 49% 3.0 mph N4.8 kmh N 5.8 mph9.3 kmh 25.10 in850.0 mb 0.00 in0.0 mm 0.00 in0.0 mm 0.00 in0.0 mm
05:13 AM 39.2°F4.0°C 21.2°F-6.0°C 48% 3.0 mph N4.8 kmh N 4.5 mph7.2 kmh 25.10 in850.0 mb 0.00 in0.0 mm 0.00 in0.0 mm 0.00 in0.0 mm
05:08 AM 39.9°F4.4°C 21.9°F-5.6°C 48% 4.0 mph NNW6.4 kmh NNW 8.3 mph13.4 kmh 25.10 in850.0 mb 0.00 in0.0 mm 0.00 in0.0 mm 0.00 in0.0 mm
05:03 AM 39.9°F4.4°C 22.3°F-5.4°C 49% 4.0 mph NNW6.4 kmh NNW 6.9 mph11.1 kmh 25.10 in850.0 mb 0.00 in0.0 mm 0.00 in0.0 mm 0.00 in0.0 mm
04:58 AM 39.9°F4.4°C 22.8°F-5.1°C 50% 4.0 mph N6.4 kmh N 6.9 mph11.1 kmh 25.10 in850.0 mb 0.00 in0.0 mm 0.00 in0.0 mm 0.00 in0.0 mm
04:53 AM 38.8°F3.8°C 21.4°F-5.9°C 49% 2.0 mph N3.2 kmh N 4.5 mph7.2 kmh 25.10 in850.0 mb 0.00 in0.0 mm 0.00 in0.0 mm 0.00 in0.0 mm
04:48 AM 38.5°F3.6°C 21.0°F-6.1°C 49% 2.0 mph 3.2 kmh 4.0 mph6.4 kmh 25.10 in850.0 mb 0.00 in0.0 mm 0.00 in0.0 mm 0.00 in0.0 mm
04:43 AM 38.8°F3.8°C 21.4°F-5.9°C 49% 3.0 mph N4.8 kmh N 4.9 mph7.9 kmh 25.10 in850.0 mb 0.00 in0.0 mm 0.00 in0.0 mm 0.00 in0.0 mm
04:38 AM 39.2°F4.0°C 21.7°F-5.7°C 49% 4.0 mph N6.4 kmh N 5.4 mph8.7 kmh 25.10 in850.0 mb 0.00 in0.0 mm 0.00 in0.0 mm 0.00 in0.0 mm
04:33 AM 38.8°F3.8°C 20.8°F-6.2°C 48% 2.0 mph NNW3.2 kmh NNW 5.8 mph9.3 kmh 25.10 in850.0 mb 0.00 in0.0 mm 0.00 in0.0 mm 0.00 in0.0 mm
04:28 AM 39.0°F3.9°C 20.5°F-6.4°C 47% 1.0 mph NW1.6 kmh NW 4.5 mph7.2 kmh 25.10 in850.0 mb 0.00 in0.0 mm 0.00 in0.0 mm 0.00 in0.0 mm
04:23 AM 39.7°F4.3°C 20.7°F-6.3°C 46% 1.0 mph NW1.6 kmh NW 4.0 mph6.4 kmh 25.10 in850.0 mb 0.00 in0.0 mm 0.00 in0.0 mm 0.00 in0.0 mm
04:18 AM 40.3°F4.6°C 21.2°F-6.0°C 46% 2.0 mph NNW3.2 kmh NNW 5.4 mph8.7 kmh 25.10 in850.0 mb 0.00 in0.0 mm 0.00 in0.0 mm 0.00 in0.0 mm
04:13 AM 40.6°F4.8°C 22.5°F-5.3°C 48% 3.0 mph 4.8 kmh 6.3 mph10.1 kmh 25.10 in850.0 mb 0.00 in0.0 mm 0.00 in0.0 mm 0.00 in0.0 mm
04:08 AM 39.2°F4.0°C 21.2°F-6.0°C 48% 2.0 mph N3.2 kmh N 4.5 mph7.2 kmh 25.10 in850.0 mb 0.00 in0.0 mm 0.00 in0.0 mm 0.00 in0.0 mm
04:03 AM 38.8°F3.8°C 19.8°F-6.8°C 46% 2.0 mph N3.2 kmh N 4.5 mph7.2 kmh 25.10 in850.0 mb 0.00 in0.0 mm 0.00 in0.0 mm 0.00 in0.0 mm
03:58 AM 39.7°F4.3°C 20.7°F-6.3°C 46% 3.0 mph N4.8 kmh N 4.9 mph7.9 kmh 25.10 in850.0 mb 0.00 in0.0 mm 0.00 in0.0 mm 0.00 in0.0 mm
03:53 AM 40.6°F4.8°C 21.6°F-5.8°C 46% 3.0 mph N4.8 kmh N 5.4 mph8.7 kmh 25.10 in850.0 mb 0.00 in0.0 mm 0.00 in0.0 mm 0.00 in0.0 mm
03:48 AM 39.7°F4.3°C 19.6°F-6.9°C 44% 3.0 mph N4.8 kmh N 5.4 mph8.7 kmh 25.10 in850.0 mb 0.00 in0.0 mm 0.00 in0.0 mm 0.00 in0.0 mm
03:43 AM 40.8°F4.9°C 20.7°F-6.3°C 44% 3.0 mph NNW4.8 kmh NNW 5.4 mph8.7 kmh 25.10 in850.0 mb 0.00 in0.0 mm 0.00 in0.0 mm 0.00 in0.0 mm
03:38 AM 40.5°F4.7°C 20.8°F-6.2°C 45% 2.0 mph N3.2 kmh N 5.8 mph9.3 kmh 25.10 in850.0 mb 0.00 in0.0 mm 0.00 in0.0 mm 0.00 in0.0 mm
03:33 AM 39.6°F4.2°C 20.5°F-6.4°C 46% 1.0 mph N1.6 kmh N 5.8 mph9.3 kmh 25.10 in850.0 mb 0.00 in0.0 mm 0.00 in0.0 mm 0.00 in0.0 mm
03:28 AM 39.2°F4.0°C 19.6°F-6.9°C 45% Calm Calm 3.6 mph5.8 kmh 25.10 in850.0 mb 0.00 in0.0 mm 0.00 in0.0 mm 0.00 in0.0 mm
03:23 AM 38.8°F3.8°C 18.9°F-7.3°C 44% Calm Calm -- 25.10 in850.0 mb 0.00 in0.0 mm 0.00 in0.0 mm 0.00 in0.0 mm
03:18 AM 39.4°F4.1°C 18.7°F-7.4°C 43% Calm Calm -- 25.10 in850.0 mb 0.00 in0.0 mm 0.00 in0.0 mm 0.00 in0.0 mm
03:13 AM 39.6°F4.2°C 18.9°F-7.3°C 43% 1.0 mph N1.6 kmh N 3.6 mph5.8 kmh 25.10 in850.0 mb 0.00 in0.0 mm 0.00 in0.0 mm 0.00 in0.0 mm
03:08 AM 39.9°F4.4°C 18.7°F-7.4°C 42% 3.0 mph N4.8 kmh N 4.5 mph7.2 kmh 25.10 in850.0 mb 0.00 in0.0 mm 0.00 in0.0 mm 0.00 in0.0 mm
03:03 AM 40.5°F4.7°C 18.1°F-7.7°C 40% 4.0 mph NNE6.4 kmh NNE 6.7 mph10.8 kmh 25.10 in850.0 mb 0.00 in0.0 mm 0.00 in0.0 mm 0.00 in0.0 mm
02:58 AM 40.3°F4.6°C 17.2°F-8.2°C 39% 3.0 mph NNE4.8 kmh NNE 5.4 mph8.7 kmh 25.13 in851.0 mb 0.00 in0.0 mm 0.00 in0.0 mm 0.00 in0.0 mm
02:53 AM 41.2°F5.1°C 16.3°F-8.7°C 36% 3.0 mph NW4.8 kmh NW 5.8 mph9.3 kmh 25.13 in851.0 mb 0.00 in0.0 mm 0.00 in0.0 mm 0.00 in0.0 mm
02:48 AM 43.5°F6.4°C 16.3°F-8.7°C 33% 2.0 mph NW3.2 kmh NW 4.5 mph7.2 kmh 25.13 in851.0 mb 0.00 in0.0 mm 0.00 in0.0 mm 0.00 in0.0 mm
02:43 AM 44.2°F6.8°C 15.6°F-9.1°C 31% 2.0 mph NW3.2 kmh NW 3.6 mph5.8 kmh 25.13 in851.0 mb 0.00 in0.0 mm 0.00 in0.0 mm 0.00 in0.0 mm
02:38 AM 44.2°F6.8°C 16.3°F-8.7°C 32% 2.0 mph NW3.2 kmh NW 4.0 mph6.4 kmh 25.13 in851.0 mb 0.00 in0.0 mm 0.00 in0.0 mm 0.00 in0.0 mm
02:33 AM 43.9°F6.6°C 16.7°F-8.5°C 33% 2.0 mph NW3.2 kmh NW 6.3 mph10.1 kmh 25.13 in851.0 mb 0.00 in0.0 mm 0.00 in0.0 mm 0.00 in0.0 mm
02:28 AM 44.4°F6.9°C 17.1°F-8.3°C 33% 2.0 mph NNW3.2 kmh NNW 5.4 mph8.7 kmh 25.13 in851.0 mb 0.00 in0.0 mm 0.00 in0.0 mm 0.00 in0.0 mm
02:23 AM 42.1°F5.6°C 15.1°F-9.4°C 33% 2.0 mph NNW3.2 kmh NNW 3.6 mph5.8 kmh 25.13 in851.0 mb 0.00 in0.0 mm 0.00 in0.0 mm 0.00 in0.0 mm
02:18 AM 42.8°F6.0°C 15.1°F-9.4°C 32% 2.0 mph NNW3.2 kmh NNW 4.5 mph7.2 kmh 25.13 in851.0 mb 0.00 in0.0 mm 0.00 in0.0 mm 0.00 in0.0 mm
02:13 AM 43.7°F6.5°C 15.8°F-9.0°C 32% 1.0 mph NNW1.6 kmh NNW 4.9 mph7.9 kmh 25.13 in851.0 mb 0.00 in0.0 mm 0.00 in0.0 mm 0.00 in0.0 mm
02:08 AM 42.6°F5.9°C 15.6°F-9.1°C 33% Calm Calm 2.7 mph4.3 kmh 25.13 in851.0 mb 0.00 in0.0 mm 0.00 in0.0 mm 0.00 in0.0 mm
02:03 AM 42.4°F5.8°C 14.7°F-9.6°C 32% Calm Calm 3.6 mph5.8 kmh 25.13 in851.0 mb 0.00 in0.0 mm 0.00 in0.0 mm 0.00 in0.0 mm
01:58 AM 42.4°F5.8°C 13.3°F-10.4°C 30% 1.0 mph NNW1.6 kmh NNW 3.1 mph5.0 kmh 25.13 in851.0 mb 0.00 in0.0 mm 0.00 in0.0 mm 0.00 in0.0 mm
01:53 AM 43.3°F6.3°C 13.3°F-10.4°C 29% 1.0 mph NNW1.6 kmh NNW 4.0 mph6.4 kmh 25.13 in851.0 mb 0.00 in0.0 mm 0.00 in0.0 mm 0.00 in0.0 mm
01:48 AM 44.8°F7.1°C 13.6°F-10.2°C 28% 2.0 mph NNW3.2 kmh NNW 3.6 mph5.8 kmh 25.13 in851.0 mb 0.00 in0.0 mm 0.00 in0.0 mm 0.00 in0.0 mm
01:43 AM 46.2°F7.9°C 14.2°F-9.9°C 27% 4.0 mph NNW6.4 kmh NNW 5.4 mph8.7 kmh 25.13 in851.0 mb 0.00 in0.0 mm 0.00 in0.0 mm 0.00 in0.0 mm
01:38 AM 46.8°F8.2°C 14.5°F-9.7°C 27% 5.0 mph NW8.0 kmh NW 6.9 mph11.1 kmh 25.13 in851.0 mb 0.00 in0.0 mm 0.00 in0.0 mm 0.00 in0.0 mm
01:33 AM 46.0°F7.8°C 11.3°F-11.5°C 24% 4.0 mph NW6.4 kmh NW 6.9 mph11.1 kmh 25.13 in851.0 mb 0.00 in0.0 mm 0.00 in0.0 mm 0.00 in0.0 mm
01:28 AM 47.1°F8.4°C 7.0°F-13.9°C 19% 2.0 mph S3.2 kmh S 7.4 mph11.9 kmh 25.13 in851.0 mb 0.00 in0.0 mm 0.00 in0.0 mm 0.00 in0.0 mm
01:23 AM 47.5°F8.6°C 3.6°F-15.8°C 16% 1.0 mph SSE1.6 kmh SSE 3.1 mph5.0 kmh 25.13 in851.0 mb 0.00 in0.0 mm 0.00 in0.0 mm 0.00 in0.0 mm
01:18 AM 47.3°F8.5°C 3.4°F-15.9°C 16% 1.0 mph SSE1.6 kmh SSE 4.5 mph7.2 kmh 25.13 in851.0 mb 0.00 in0.0 mm 0.00 in0.0 mm 0.00 in0.0 mm
01:13 AM 46.9°F8.3°C 4.5°F-15.3°C 17% Calm Calm 4.5 mph7.2 kmh 25.13 in851.0 mb 0.00 in0.0 mm 0.00 in0.0 mm 0.00 in0.0 mm
01:08 AM 46.9°F8.3°C 4.5°F-15.3°C 17% Calm Calm 2.7 mph4.3 kmh 25.13 in851.0 mb 0.00 in0.0 mm 0.00 in0.0 mm 0.00 in0.0 mm
01:03 AM 46.8°F8.2°C 4.3°F-15.4°C 17% Calm Calm -- 25.13 in851.0 mb 0.00 in0.0 mm 0.00 in0.0 mm 0.00 in0.0 mm
12:58 AM 46.8°F8.2°C 4.3°F-15.4°C 17% Calm Calm -- 25.13 in851.0 mb 0.00 in0.0 mm 0.00 in0.0 mm 0.00 in0.0 mm
12:53 AM 46.8°F8.2°C 4.3°F-15.4°C 17% Calm Calm -- 25.13 in851.0 mb 0.00 in0.0 mm 0.00 in0.0 mm 0.00 in0.0 mm
12:47 AM 47.3°F8.5°C 4.6°F-15.2°C 17% Calm Calm 2.7 mph4.3 kmh 25.13 in851.0 mb 0.00 in0.0 mm 0.00 in0.0 mm 0.00 in0.0 mm
12:42 AM 47.5°F8.6°C 3.6°F-15.8°C 16% Calm Calm 3.1 mph5.0 kmh 25.13 in851.0 mb 0.00 in0.0 mm 0.00 in0.0 mm 0.00 in0.0 mm
12:37 AM 47.7°F8.7°C 3.7°F-15.7°C 16% 1.0 mph S1.6 kmh S 3.6 mph5.8 kmh 25.13 in851.0 mb 0.00 in0.0 mm 0.00 in0.0 mm 0.00 in0.0 mm
12:32 AM 47.8°F8.8°C 3.9°F-15.6°C 16% 1.0 mph S1.6 kmh S 3.6 mph5.8 kmh 25.13 in851.0 mb 0.00 in0.0 mm 0.00 in0.0 mm 0.00 in0.0 mm
12:27 AM 47.1°F8.4°C 4.6°F-15.2°C 17% 1.0 mph S1.6 kmh S 3.6 mph5.8 kmh 25.13 in851.0 mb 0.00 in0.0 mm 0.00 in0.0 mm 0.00 in0.0 mm
12:22 AM 47.1°F8.4°C 4.6°F-15.2°C 17% 2.0 mph SE3.2 kmh SE 4.9 mph7.9 kmh 25.13 in851.0 mb 0.00 in0.0 mm 0.00 in0.0 mm 0.00 in0.0 mm
12:17 AM 47.3°F8.5°C 4.6°F-15.2°C 17% 3.0 mph ESE4.8 kmh ESE 6.7 mph10.8 kmh 25.13 in851.0 mb 0.00 in0.0 mm 0.00 in0.0 mm 0.00 in0.0 mm
12:12 AM 47.5°F8.6°C 3.6°F-15.8°C 16% 3.0 mph S4.8 kmh S 6.7 mph10.8 kmh 25.13 in851.0 mb 0.00 in0.0 mm 0.00 in0.0 mm 0.00 in0.0 mm
12:07 AM 47.5°F8.6°C 3.6°F-15.8°C 16% 2.0 mph W3.2 kmh W 4.9 mph7.9 kmh 25.13 in851.0 mb 0.00 in0.0 mm 0.00 in0.0 mm 0.00 in0.0 mm
12:02 AM 47.7°F8.7°C 3.7°F-15.7°C 16% Calm Calm 4.0 mph6.4 kmh 25.13 in851.0 mb 0.00 in0.0 mm 0.00 in0.0 mm 0.00 in0.0 mm